Tumeremo, Venezuela
Current Conditions -  °F | °C
As of 12:00 AM on Sunday 26 Oct 2014 (Local Time) from SYCJ Reporting Station
Moderate Fog Moderate Fog  
Wind Chill: 75°   Ceiling: Unl
Heat Index: 75°   Visibility: 0.43mi
Dew Point: 75°   Wind: 0mph
Humidity: 100%   Direction: NA
Pressure: 29.8"   Gusts: NA
Location:  7.29°N, 61.48°W
Report Text: SYCJ 260400Z 00000KT 0700 FG SCT003 SCT280 24/24 Q1009 NOSIG
Loading
Personal Weather Stations






























Interactive Weather Map
Tropical Storm Tracking
New forecast layout! Learn more

10-Day Weather Forecast

Advertisements
Track Severe Weather on mobile